Terminal Aerodrome Forecast
Issued by NWS Greer, SC

Home | Current Version | Previous Version | Text Only | Print | Product List | Glossary On
Versions: 1 2 3 4 5 6 7 8 9 10 11 12 13 14 15
000
FTUS42 KGSP 292339 AAC
TAFGSP
TAF AMD
KGSP 292339Z 3000/3024 19006KT P6SM SCT250
     FM300600 21006KT P6SM BKN050
     FM301100 22009KT P6SM -SHRA OVC035
     FM301300 24008KT P6SM BKN021
     FM301700 27006KT P6SM SCT035=

USA.gov is the U.S. government's official web portal to all federal, state and local government web resources and services.